createdAt,value
2023-03-20T13:17:12.955Z,19.20
2023-03-20T13:23:04.353Z,20.30
2023-03-20T13:26:22.232Z,20.20
2023-03-20T13:29:27.839Z,20.20
2023-03-20T13:32:19.152Z,19.40
2023-03-20T13:35:04.678Z,18.90
2023-03-20T13:37:39.169Z,18.20
2023-03-20T13:40:29.999Z,17.70
2023-03-20T13:43:35.017Z,17.30
2023-03-20T13:46:14.660Z,16.80
2023-03-20T13:48:44.376Z,16.60
2023-03-20T13:51:39.818Z,16.30
2023-03-20T13:54:27.904Z,16.20
2023-03-20T13:57:17.906Z,16.40
2023-03-20T13:59:59.353Z,16.50
2023-03-20T14:03:05.876Z,16.40
2023-03-20T14:05:40.712Z,16.50
2023-03-20T14:08:32.610Z,16.70
2023-03-20T14:11:20.878Z,16.80
2023-03-20T14:14:15.613Z,16.70
2023-03-20T14:16:43.952Z,16.30
2023-03-20T14:19:19.336Z,16.30
2023-03-20T14:21:53.750Z,16.30
2023-03-20T14:24:23.013Z,16.30
2023-03-20T14:26:56.537Z,16.00
2023-03-20T14:29:29.456Z,15.70
2023-03-20T14:32:14.483Z,15.70
2023-03-20T14:35:29.050Z,15.80
2023-03-20T14:38:26.046Z,15.70
2023-03-20T14:41:46.790Z,15.60
2023-03-20T14:44:36.542Z,15.30
2023-03-20T14:47:23.864Z,14.50
2023-03-20T14:50:12.986Z,14.40
2023-03-20T14:52:51.957Z,14.70
2023-03-20T14:55:22.348Z,14.90
2023-03-20T14:57:56.633Z,15.00
2023-03-20T15:00:29.817Z,15.00
2023-03-20T15:03:15.677Z,14.90
2023-03-20T15:05:43.550Z,14.90
2023-03-20T15:08:25.849Z,14.80
2023-03-20T15:11:00.777Z,14.90
2023-03-20T15:13:29.094Z,14.70
2023-03-20T15:16:08.900Z,14.50
2023-03-20T15:18:46.264Z,14.60
2023-03-20T15:21:21.524Z,14.70
2023-03-20T15:23:49.118Z,14.70
2023-03-20T15:26:19.002Z,14.30
2023-03-20T15:28:47.067Z,14.30
2023-03-20T15:31:36.042Z,14.40
2023-03-20T15:34:08.821Z,14.40
2023-03-20T15:36:39.911Z,14.40
2023-03-20T15:39:27.163Z,14.30
2023-03-20T15:42:05.077Z,14.30
2023-03-20T15:44:38.438Z,14.30
2023-03-20T15:47:11.242Z,14.20
2023-03-20T15:49:41.405Z,14.20
2023-03-20T15:52:28.975Z,14.20
2023-03-20T15:54:59.273Z,14.10
2023-03-20T15:57:40.102Z,14.10
2023-03-20T16:00:16.745Z,14.00
2023-03-20T16:02:48.469Z,13.90
2023-03-20T16:05:17.145Z,13.80
2023-03-20T16:07:44.258Z,13.80
2023-03-20T16:10:36.552Z,13.70
2023-03-20T16:13:06.841Z,13.60
2023-03-20T16:15:34.685Z,13.50
2023-03-20T16:18:04.670Z,13.50
2023-03-20T16:20:39.102Z,13.40
2023-03-20T16:23:08.985Z,13.40
2023-03-20T16:25:37.438Z,13.30
2023-03-20T16:28:08.985Z,13.40
2023-03-20T16:30:36.717Z,13.30
2023-03-20T16:33:15.793Z,13.30
2023-03-20T16:35:49.394Z,13.20
2023-03-20T16:38:27.568Z,13.20
2023-03-20T16:41:34.425Z,13.30
2023-03-20T16:44:12.352Z,13.40
2023-03-20T16:46:59.925Z,13.50
2023-03-20T16:49:32.013Z,13.50
2023-03-20T16:52:02.172Z,13.50
2023-03-20T16:54:35.106Z,13.50
2023-03-20T16:57:04.062Z,13.50
2023-03-20T16:59:31.211Z,13.40
2023-03-20T17:02:01.704Z,13.30
2023-03-20T17:04:35.705Z,13.30
2023-03-20T17:07:27.919Z,13.20
2023-03-20T17:09:59.884Z,13.10
2023-03-20T17:12:32.442Z,12.90
2023-03-20T17:14:59.411Z,12.90
2023-03-20T17:17:26.751Z,12.80
2023-03-20T17:19:53.903Z,12.70
2023-03-20T17:22:25.258Z,12.60
2023-03-20T17:24:53.082Z,12.50
2023-03-20T17:27:21.418Z,12.50
2023-03-20T17:29:49.648Z,12.40
2023-03-20T17:32:24.061Z,12.40
2023-03-20T17:34:51.909Z,12.30
2023-03-20T17:37:29.709Z,12.30
2023-03-20T17:39:57.751Z,12.30
2023-03-20T17:42:30.983Z,12.20
2023-03-20T17:45:05.486Z,12.20
2023-03-20T17:47:32.478Z,12.20
2023-03-20T17:49:59.483Z,12.10
2023-03-20T17:52:28.885Z,12.00
2023-03-20T17:54:56.294Z,11.90
2023-03-20T17:57:37.419Z,11.80
2023-03-20T18:00:10.688Z,11.70
2023-03-20T18:02:37.620Z,11.60
2023-03-20T18:05:07.829Z,11.50
2023-03-20T18:07:34.968Z,11.40
2023-03-20T18:10:02.273Z,11.40
2023-03-20T18:12:29.259Z,11.40
2023-03-20T18:14:56.394Z,11.40
2023-03-20T18:17:23.404Z,11.40
2023-03-20T18:19:50.409Z,11.30
2023-03-20T18:22:17.343Z,11.40
2023-03-20T18:24:45.665Z,11.40
2023-03-20T18:27:12.749Z,11.40
2023-03-20T18:29:39.786Z,11.40
2023-03-20T18:32:06.836Z,11.40
2023-03-20T18:34:33.820Z,11.40
2023-03-20T18:37:01.278Z,11.40
2023-03-20T18:39:28.284Z,11.40
2023-03-20T18:41:55.474Z,11.40
2023-03-20T18:44:22.383Z,11.40
2023-03-20T18:46:49.467Z,11.40
2023-03-20T18:49:17.988Z,11.40
2023-03-20T18:51:45.656Z,11.50
2023-03-20T18:54:12.749Z,11.50
2023-03-20T18:56:40.728Z,11.40
2023-03-20T18:59:12.367Z,11.40
2023-03-20T19:01:39.725Z,11.30
2023-03-20T19:04:06.888Z,11.30
2023-03-20T19:06:33.992Z,11.30
2023-03-20T19:09:05.021Z,11.20
2023-03-20T19:11:32.029Z,11.20
2023-03-20T19:13:59.053Z,11.10
2023-03-20T19:16:28.984Z,11.00
2023-03-20T19:19:01.203Z,10.90
2023-03-20T19:21:30.341Z,10.90
2023-03-20T19:24:00.598Z,11.00
2023-03-20T19:26:30.661Z,10.90
2023-03-20T19:29:00.836Z,10.90
2023-03-20T19:31:29.363Z,10.90
2023-03-20T19:33:56.848Z,10.90
2023-03-20T19:36:28.392Z,10.90
2023-03-20T19:38:57.364Z,10.90
2023-03-20T19:41:25.419Z,10.90
2023-03-20T19:43:54.010Z,10.90
2023-03-20T19:46:41.403Z,10.90
2023-03-20T19:49:20.932Z,10.90
2023-03-20T19:51:49.475Z,10.80
2023-03-20T19:54:17.351Z,10.70
2023-03-20T19:56:44.349Z,10.70
2023-03-20T19:59:12.635Z,10.70
2023-03-20T20:01:41.284Z,10.70
2023-03-20T20:04:08.354Z,10.60
2023-03-20T20:06:35.636Z,10.50
2023-03-20T20:09:03.193Z,10.40
2023-03-20T20:11:30.318Z,10.50
2023-03-20T20:14:06.275Z,10.50
2023-03-20T20:16:36.090Z,10.50
2023-03-20T20:19:03.892Z,10.50
2023-03-20T20:24:18.117Z,10.60
2023-03-20T20:26:56.716Z,10.60
2023-03-20T20:29:30.836Z,10.60
2023-03-20T20:38:02.837Z,10.60
2023-03-20T20:42:28.811Z,10.40
2023-03-20T20:44:55.901Z,10.50
2023-03-20T20:49:50.320Z,10.20
